Time;durP1;ratioP1;P1;durP2;ratioP2;P2;SDS_P1;SDS_P2;PMS_P1;PMS_P2;Temp;Humidity;BMP_temperature;BMP_pressure;BME280_temperature;BME280_humidity;BME280_pressure;Samples;Min_cycle;Max_cycle;Signal;HPM_P1;HPM_P2
2021/10/02 00:31:17;;;;;;;5.78;2.67;;;;;;;12.40;90.49;100653.03;678783;28;4509;-52
2021/10/02 00:36:08;;;;;;;5.07;2.75;;;;;;;12.22;92.06;100641.00;681880;28;2411;-53
2021/10/02 00:36:48;;;;;;;5.13;2.50;;;;;;;12.19;91.40;100638.44;681760;28;1943;-51
2021/10/02 00:44:50;;;;;;;5.00;2.22;;;;;;;12.23;90.37;100641.91;681539;28;4132;-50
2021/10/02 00:45:10;;;;;;;4.60;2.45;;;;;;;12.32;91.44;100651.38;681451;28;4347;-54
2021/10/02 00:45:31;;;;;;;4.27;2.37;;;;;;;12.32;91.39;100643.53;680042;28;1466;-54
2021/10/02 00:45:53;;;;;;;4.88;2.30;;;;;;;12.28;91.87;100647.97;678803;29;4382;-53
2021/10/02 00:46:14;;;;;;;4.10;2.50;;;;;;;12.26;90.67;100641.84;678493;29;1375;-53
2021/10/02 00:46:35;;;;;;;4.50;2.30;;;;;;;12.24;91.49;100647.13;675765;29;1968;-54
2021/10/02 00:46:55;;;;;;;5.70;2.60;;;;;;;12.20;92.93;100645.41;676442;29;1464;-52
2021/10/02 00:47:19;;;;;;;5.00;2.50;;;;;;;12.19;92.65;100646.28;676467;29;1682;-53
2021/10/02 00:47:39;;;;;;;4.93;2.60;;;;;;;12.14;94.05;100649.84;677196;29;1765;-50
2021/10/02 00:48:00;;;;;;;5.53;2.40;;;;;;;12.14;92.60;100650.72;679232;29;4364;-54
2021/10/02 00:48:20;;;;;;;5.82;2.40;;;;;;;12.14;92.32;100648.09;681938;28;1965;-52
2021/10/02 00:48:41;;;;;;;5.73;2.57;;;;;;;12.17;91.94;100650.69;682309;28;1598;-52
2021/10/02 00:49:01;;;;;;;5.80;2.53;;;;;;;12.17;91.31;100645.47;682110;28;4530;-51
2021/10/02 00:49:23;;;;;;;6.30;2.43;;;;;;;12.19;92.96;100648.06;682310;28;1843;-51
2021/10/02 00:49:44;;;;;;;5.82;2.67;;;;;;;12.32;93.30;100646.16;681881;28;1436;-55
2021/10/02 00:50:06;;;;;;;5.47;2.67;;;;;;;12.27;92.01;100647.06;679114;29;1868;-50
2021/10/02 00:50:26;;;;;;;5.68;2.50;;;;;;;12.24;91.41;100641.88;680283;29;1572;-50
2021/10/02 00:50:47;;;;;;;4.25;2.35;;;;;;;12.22;91.69;100648.88;678242;29;3829;-55
2021/10/02 00:51:08;;;;;;;4.87;2.50;;;;;;;12.21;91.20;100641.91;679492;29;4489;-54
2021/10/02 00:51:28;;;;;;;5.72;2.45;;;;;;;12.23;90.66;100642.75;679609;29;1586;-53
2021/10/02 00:51:49;;;;;;;5.38;2.35;;;;;;;12.24;89.59;100641.88;678619;28;4353;-53
2021/10/02 00:52:12;;;;;;;5.60;2.50;;;;;;;12.25;89.61;100643.63;680714;28;1714;-54
2021/10/02 00:52:33;;;;;;;5.72;2.47;;;;;;;12.30;89.38;100640.06;679598;29;1322;-53
2021/10/02 00:52:53;;;;;;;5.20;2.70;;;;;;;12.30;90.26;100645.31;678653;29;1556;-52
2021/10/02 00:53:14;;;;;;;5.13;2.28;;;;;;;12.31;90.80;100647.03;679434;29;1650;-53
2021/10/02 00:53:35;;;;;;;6.97;2.15;;;;;;;12.29;90.64;100641.81;678920;29;1841;-54
2021/10/02 00:53:55;;;;;;;5.85;2.28;;;;;;;12.31;89.64;100640.06;678791;29;4023;-55
2021/10/02 00:54:15;;;;;;;5.13;2.50;;;;;;;12.29;92.77;100643.56;678652;29;1589;-54
2021/10/02 00:54:36;;;;;;;4.20;2.47;;;;;;;12.25;93.22;100646.25;678433;29;1520;-54
2021/10/02 00:54:56;;;;;;;4.20;2.42;;;;;;;12.22;94.16;100642.78;678609;28;4370;-53
2021/10/02 00:55:17;;;;;;;5.83;2.70;;;;;;;12.18;94.27;100644.56;680362;29;1399;-51
2021/10/02 00:55:37;;;;;;;6.40;2.60;;;;;;;12.16;92.91;100648.97;679665;29;1490;-53
2021/10/02 00:55:57;;;;;;;6.07;2.80;;;;;;;12.14;93.21;100640.22;679171;29;1453;-51
2021/10/02 00:56:18;;;;;;;6.22;2.92;;;;;;;12.12;94.29;100642.00;680171;29;1268;-52
2021/10/02 00:56:38;;;;;;;7.37;2.97;;;;;;;12.12;94.08;100649.88;679394;28;2610;-50
2021/10/02 00:57:01;;;;;;;6.55;2.80;;;;;;;12.10;93.75;100646.38;681845;28;3420;-55
2021/10/02 00:57:21;;;;;;;5.57;2.78;;;;;;;12.09;93.37;100648.16;681907;28;1697;-53
2021/10/02 00:57:42;;;;;;;5.43;2.40;;;;;;;12.13;92.57;100648.13;682244;28;1856;-55
2021/10/02 00:58:03;;;;;;;5.13;2.60;;;;;;;12.22;90.84;100643.63;681236;28;4854;-51
2021/10/02 00:58:24;;;;;;;5.70;2.60;;;;;;;12.25;91.12;100642.72;682551;28;1444;-49
2021/10/02 00:58:48;;;;;;;6.32;2.70;;;;;;;12.40;92.61;100646.94;680851;28;1657;-55
2021/10/02 00:59:08;;;;;;;4.78;2.22;;;;;;;12.37;90.82;100641.72;680313;29;1523;-51
2021/10/02 00:59:31;;;;;;;5.40;2.30;;;;;;;12.36;91.38;100639.97;679433;29;1431;-55
2021/10/02 00:59:52;;;;;;;6.00;2.67;;;;;;;12.34;90.46;100639.16;678225;29;4282;-51
2021/10/02 01:00:13;;;;;;;5.20;2.50;;;;;;;12.30;93.45;100640.06;679236;29;1684;-51
2021/10/02 01:00:34;;;;;;;5.65;2.88;;;;;;;12.26;92.66;100642.72;679979;29;1651;-49
2021/10/02 01:00:57;;;;;;;4.68;2.40;;;;;;;12.26;90.67;100634.84;679347;28;4353;-53
2021/10/02 01:01:27;;;;;;;4.28;2.30;;;;;;;12.25;92.70;100635.75;676826;29;1678;-52
2021/10/02 01:01:56;;;;;;;6.15;2.50;;;;;;;12.23;91.64;100642.75;678121;29;1535;-54
2021/10/02 01:02:31;;;;;;;5.63;2.60;;;;;;;12.26;91.19;100642.72;678599;29;1678;-53
2021/10/02 01:02:55;;;;;;;5.03;2.80;;;;;;;12.23;94.07;100637.50;679050;29;3739;-53
2021/10/02 01:03:35;;;;;;;5.55;2.67;;;;;;;12.21;92.31;100641.91;679015;29;1655;-51
2021/10/02 01:04:27;;;;;;;4.65;2.58;;;;;;;12.26;90.68;100640.09;679659;28;4482;-53
2021/10/02 01:04:57;;;;;;;4.82;2.50;;;;;;;12.25;90.60;100635.75;679128;29;1527;-54
2021/10/02 01:05:50;;;;;;;4.93;2.30;;;;;;;12.28;91.39;100632.22;679258;29;1205;-54
2021/10/02 01:06:35;;;;;;;4.55;2.58;;;;;;;12.29;92.04;100633.09;678584;29;1675;-51
2021/10/02 01:07:06;;;;;;;6.05;2.60;;;;;;;12.29;91.73;100638.31;678642;28;4711;-52
2021/10/02 01:07:32;;;;;;;5.30;2.80;;;;;;;12.29;92.05;100638.31;681322;28;1633;-54
2021/10/02 01:08:02;;;;;;;5.22;2.50;;;;;;;12.32;90.36;100633.91;681419;28;1057;-50
2021/10/02 01:08:34;;;;;;;5.43;2.65;;;;;;;12.29;92.96;100627.84;681208;28;1384;-50
2021/10/02 01:09:06;;;;;;;6.78;2.90;;;;;;;12.32;92.94;100639.13;681317;28;1586;-51
2021/10/02 01:10:09;;;;;;;5.63;2.60;;;;;;;12.41;91.28;100630.31;678758;29;1815;-53
2021/10/02 01:10:56;;;;;;;5.15;2.55;;;;;;;12.43;90.62;100631.16;678332;29;4834;-52
2021/10/02 01:11:41;;;;;;;6.78;2.60;;;;;;;12.49;90.33;100631.09;680790;28;1477;-53
2021/10/02 01:12:19;;;;;;;4.72;2.50;;;;;;;12.43;91.49;100634.66;678708;29;1734;-52
2021/10/02 01:13:03;;;;;;;4.78;2.45;;;;;;;12.41;90.57;100622.44;678817;29;1655;-53
2021/10/02 01:13:48;;;;;;;4.13;2.35;;;;;;;12.40;89.71;100623.31;678959;29;4845;-53
2021/10/02 01:14:17;;;;;;;5.25;2.40;;;;;;;12.34;90.03;100620.81;678513;29;1502;-54
2021/10/02 01:14:46;;;;;;;4.38;2.30;;;;;;;12.35;90.73;100627.75;678697;29;3801;-53
2021/10/02 01:15:13;;;;;;;5.40;2.50;;;;;;;12.35;90.13;100625.13;679423;29;1473;-51
2021/10/02 01:15:46;;;;;;;5.90;2.40;;;;;;;12.37;90.04;100620.75;679975;29;1506;-53
2021/10/02 01:16:15;;;;;;;4.93;2.60;;;;;;;12.39;90.09;100621.59;678367;29;4464;-51
2021/10/02 01:16:40;;;;;;;5.75;2.72;;;;;;;12.50;91.61;100626.69;679106;29;1391;-53
2021/10/02 01:17:06;;;;;;;4.50;2.38;;;;;;;12.48;90.11;100629.34;679412;29;1634;-52
2021/10/02 01:18:08;;;;;;;6.07;2.40;;;;;;;12.52;89.16;100624.94;678821;29;3990;-53
2021/10/02 01:18:34;;;;;;;5.22;2.40;;;;;;;12.54;89.78;100626.63;676282;29;1791;-53
2021/10/02 01:19:13;;;;;;;4.63;2.50;;;;;;;12.55;90.75;100624.88;674118;29;4359;-54
2021/10/02 01:20:02;;;;;;;4.18;2.25;;;;;;;12.52;88.63;100628.41;676523;29;1557;-51
2021/10/02 01:20:54;;;;;;;6.00;2.33;;;;;;;12.60;89.96;100618.69;676305;29;3392;-53
2021/10/02 01:22:08;;;;;;;4.47;2.20;;;;;;;12.57;88.36;100623.97;677905;29;1614;-51
2021/10/02 01:22:56;;;;;;;5.38;2.50;;;;;;;12.46;91.56;100618.03;678455;29;5109;-54
2021/10/02 01:23:26;;;;;;;6.13;2.83;;;;;;;12.41;91.00;100612.81;675510;29;1513;-52
2021/10/02 01:23:58;;;;;;;4.32;2.40;;;;;;;12.41;90.41;100617.22;675400;29;5128;-55
2021/10/02 01:24:42;;;;;;;4.88;2.42;;;;;;;12.39;92.56;100613.72;676837;29;1432;-51
2021/10/02 01:25:38;;;;;;;4.25;2.58;;;;;;;12.39;92.90;100616.34;678145;28;4304;-52
2021/10/02 01:26:11;;;;;;;6.15;2.40;;;;;;;12.42;90.63;100617.19;673456;29;1542;-51
2021/10/02 01:26:44;;;;;;;5.07;2.30;;;;;;;12.42;90.36;100617.19;673773;29;3699;-52
2021/10/02 01:27:08;;;;;;;4.00;2.30;;;;;;;12.41;89.00;100618.06;673541;29;1365;-52
2021/10/02 01:27:56;;;;;;;5.10;2.30;;;;;;;12.42;88.80;100614.56;673521;29;1345;-52
2021/10/02 01:28:21;;;;;;;4.38;2.60;;;;;;;12.34;92.93;100618.19;679290;29;4821;-54
2021/10/02 01:28:44;;;;;;;4.97;2.80;;;;;;;12.32;92.56;100617.31;679826;29;1619;-52
2021/10/02 01:29:08;;;;;;;5.20;2.50;;;;;;;12.32;90.90;100617.31;680099;29;1548;-54
2021/10/02 01:29:32;;;;;;;5.88;2.55;;;;;;;12.34;92.15;100615.56;678354;29;3760;-51
2021/10/02 01:29:54;;;;;;;7.05;2.70;;;;;;;12.23;94.21;100621.78;679692;29;2328;-53
2021/10/02 01:30:21;;;;;;;5.80;2.80;;;;;;;12.18;93.54;100615.72;680058;29;1761;-50
2021/10/02 01:31:06;;;;;;;5.55;2.50;;;;;;;12.21;92.21;100617.44;680210;29;1435;-54
2021/10/02 01:31:37;;;;;;;4.93;2.40;;;;;;;12.16;92.50;100616.66;677458;29;5023;-54
2021/10/02 01:32:10;;;;;;;5.03;2.35;;;;;;;12.18;91.43;100614.88;678575;29;1456;-50
2021/10/02 01:32:37;;;;;;;4.80;2.35;;;;;;;12.17;92.65;100616.63;681121;28;4532;-52
2021/10/02 01:33:13;;;;;;;5.53;2.70;;;;;;;12.20;93.87;100618.34;681152;28;1656;-54
2021/10/02 01:34:07;;;;;;;5.50;2.90;;;;;;;12.21;94.67;100610.47;680270;29;1349;-54
2021/10/02 01:35:17;;;;;;;4.75;2.38;;;;;;;12.20;92.25;100613.97;678351;29;4875;-53
2021/10/02 01:35:27;;;;;;;4.38;2.33;;;;;;;12.29;91.15;100618.22;680948;28;3679;-54
2021/10/02 01:35:59;;;;;;;5.97;2.50;;;;;;;12.33;92.49;100613.81;680661;28;1589;-52
2021/10/02 01:47:08;;;;;;;7.07;2.60;;;;;;;12.26;92.56;100608.63;679944;29;1600;-51
2021/10/02 01:47:14;;;;;;;4.45;2.40;;;;;;;12.17;91.77;100598.28;679267;29;1563;-50
2021/10/02 01:47:36;;;;;;;4.50;2.45;;;;;;;12.17;93.67;100598.28;683454;28;1762;-49
2021/10/02 01:47:58;;;;;;;4.68;2.60;;;;;;;12.16;92.62;100598.31;681610;28;2009;-53
2021/10/02 01:48:19;;;;;;;4.85;2.35;;;;;;;12.16;91.66;100593.94;680303;29;2051;-53
2021/10/02 01:48:41;;;;;;;4.90;2.53;;;;;;;12.17;90.63;100595.66;679905;29;1539;-53
2021/10/02 01:49:01;;;;;;;4.40;2.40;;;;;;;12.19;92.44;100588.63;679429;29;4599;-53
2021/10/02 01:49:23;;;;;;;4.88;2.78;;;;;;;12.21;91.42;100599.09;679810;29;1346;-49
2021/10/02 01:49:47;;;;;;;4.70;2.40;;;;;;;12.20;91.58;100598.25;680404;29;1546;-49
2021/10/02 01:50:09;;;;;;;4.57;2.63;;;;;;;12.18;92.11;100600.00;681024;28;3467;-50
2021/10/02 01:50:31;;;;;;;4.00;2.50;;;;;;;12.19;90.80;100596.50;682489;28;1470;-55
2021/10/02 01:50:54;;;;;;;4.00;2.28;;;;;;;12.22;90.56;100596.44;681862;28;1643;-52
2021/10/02 01:51:16;;;;;;;4.32;2.40;;;;;;;12.23;89.83;100598.19;682756;28;1857;-52
2021/10/02 01:51:37;;;;;;;4.47;2.70;;;;;;;12.23;92.57;100586.84;680067;28;1436;-53
2021/10/02 01:51:58;;;;;;;4.13;2.35;;;;;;;12.22;91.09;100588.59;680061;28;4345;-52
2021/10/02 01:52:40;;;;;;;4.38;2.30;;;;;;;12.21;93.23;100592.13;680408;29;1712;-53
2021/10/02 01:53:04;;;;;;;5.40;2.50;;;;;;;12.18;92.21;100594.75;679990;29;3755;-50
2021/10/02 01:53:33;;;;;;;4.32;2.40;;;;;;;12.19;91.03;100593.88;678823;29;4276;-52
2021/10/02 01:53:55;;;;;;;4.65;2.30;;;;;;;12.22;90.91;100600.84;680259;29;1422;-49
2021/10/02 01:54:16;;;;;;;4.75;2.28;;;;;;;12.24;90.36;100596.47;680160;29;1527;-52
2021/10/02 01:54:38;;;;;;;4.30;2.38;;;;;;;12.24;90.08;100599.94;679447;29;1744;-53
2021/10/02 01:55:00;;;;;;;4.25;2.30;;;;;;;12.25;90.92;100598.16;679311;29;4309;-51
2021/10/02 01:55:23;;;;;;;5.03;2.70;;;;;;;12.39;92.90;100598.00;681685;28;1690;-51
2021/10/02 01:55:44;;;;;;;4.70;2.47;;;;;;;12.39;91.33;100592.75;679869;29;1306;-50
2021/10/02 01:56:08;;;;;;;5.30;2.50;;;;;;;12.37;90.35;100599.78;681042;28;3955;-52
2021/10/02 01:56:28;;;;;;;4.75;2.30;;;;;;;12.36;90.05;100588.41;679391;29;4507;-54
2021/10/02 01:56:50;;;;;;;4.70;2.30;;;;;;;12.37;89.62;100605.03;681905;28;1827;-52
2021/10/02 01:57:12;;;;;;;4.35;2.50;;;;;;;12.38;89.86;100597.13;682922;28;1580;-52
2021/10/02 01:57:40;;;;;;;5.25;2.50;;;;;;;12.40;89.86;100603.22;683214;28;1229;-50
2021/10/02 01:58:04;;;;;;;5.75;2.25;;;;;;;12.39;90.29;100598.00;680129;28;4514;-52
2021/10/02 01:58:24;;;;;;;3.55;2.00;;;;;;;12.39;89.39;100603.22;679979;29;1399;-52
2021/10/02 01:58:47;;;;;;;4.03;2.10;;;;;;;12.38;89.78;100602.38;680019;29;1627;-50
2021/10/02 01:59:11;;;;;;;4.82;2.30;;;;;;;12.37;89.09;100598.00;677025;29;4715;-51
2021/10/02 01:59:33;;;;;;;4.10;2.60;;;;;;;12.33;93.08;100598.94;676792;29;1542;-52
2021/10/02 01:59:55;;;;;;;5.20;2.90;;;;;;;12.29;93.88;100596.41;678027;29;1583;-51
2021/10/02 02:00:17;;;;;;;5.13;2.72;;;;;;;12.25;92.23;100601.69;679814;29;1695;-49
2021/10/02 02:00:45;;;;;;;4.53;2.30;;;;;;;12.25;92.25;100593.81;677267;29;1625;-53
2021/10/02 02:01:06;;;;;;;3.97;2.40;;;;;;;12.24;92.03;100596.47;678843;29;4295;-53
2021/10/02 02:01:28;;;;;;;4.70;2.40;;;;;;;12.25;89.80;100595.56;678919;29;1568;-49
2021/10/02 02:01:49;;;;;;;5.72;2.45;;;;;;;12.25;91.92;100593.81;677941;29;1694;-53
2021/10/02 02:02:10;;;;;;;5.30;2.70;;;;;;;12.26;93.87;100594.66;677086;29;4151;-51
2021/10/02 02:02:33;;;;;;;5.53;2.83;;;;;;;12.22;93.27;100593.84;678098;29;1669;-52
2021/10/02 02:02:57;;;;;;;6.65;2.60;;;;;;;12.20;94.05;100594.78;680200;29;1463;-53
2021/10/02 02:03:20;;;;;;;5.72;2.67;;;;;;;12.18;93.15;100597.38;679609;29;1454;-49
2021/10/02 02:03:44;;;;;;;4.13;2.50;;;;;;;12.21;91.60;100597.38;679303;29;1993;-53
2021/10/02 02:04:06;;;;;;;3.78;2.30;;;;;;;12.24;90.89;100597.31;680798;28;4351;-49
2021/10/02 02:04:29;;;;;;;4.45;2.60;;;;;;;12.23;93.46;100598.19;681048;29;1133;-51
2021/10/02 02:04:50;;;;;;;5.75;2.53;;;;;;;12.20;93.23;100598.25;681255;29;4084;-53
2021/10/02 02:05:11;;;;;;;6.80;2.50;;;;;;;12.20;92.06;100598.25;681582;29;4415;-49
2021/10/02 02:05:35;;;;;;;4.30;2.40;;;;;;;12.22;93.08;100591.22;681537;29;1434;-52
2021/10/02 02:05:55;;;;;;;4.88;2.63;;;;;;;12.23;91.99;100598.19;680617;29;1598;-51
2021/10/02 02:06:17;;;;;;;5.03;2.77;;;;;;;12.23;93.54;100602.59;680365;29;2259;-50
2021/10/02 02:06:39;;;;;;;4.45;2.65;;;;;;;12.20;94.00;100594.78;679058;29;1981;-51
2021/10/02 02:07:00;;;;;;;4.60;2.85;;;;;;;12.17;94.39;100587.81;680572;29;4745;-51
2021/10/02 02:07:24;;;;;;;4.90;2.80;;;;;;;12.14;93.88;100589.59;679506;29;1635;-53
2021/10/02 02:07:49;;;;;;;4.75;2.70;;;;;;;12.14;93.02;100589.59;680181;29;1646;-52
2021/10/02 02:08:13;;;;;;;4.68;2.63;;;;;;;12.15;91.67;100589.56;680190;29;1542;-51
2021/10/02 02:08:34;;;;;;;4.20;2.50;;;;;;;12.21;90.70;100589.50;679177;29;1626;-52
2021/10/02 02:08:56;;;;;;;4.03;2.40;;;;;;;12.25;90.09;100593.81;679406;29;4095;-53
2021/10/02 02:09:19;;;;;;;4.88;2.60;;;;;;;12.28;91.33;100595.53;681635;28;2976;-53
2021/10/02 02:09:41;;;;;;;5.03;2.50;;;;;;;12.26;91.25;100592.91;681376;28;1688;-53
2021/10/02 02:10:05;;;;;;;4.55;2.67;;;;;;;12.24;93.47;100594.69;681258;28;4602;-49
2021/10/02 02:10:26;;;;;;;4.70;2.72;;;;;;;12.21;94.72;100593.84;683558;28;1652;-52
2021/10/02 02:10:47;;;;;;;5.05;2.80;;;;;;;12.18;93.05;100589.50;682335;28;1436;-52
2021/10/02 02:11:10;;;;;;;5.07;2.53;;;;;;;12.19;91.19;100593.88;682358;28;1383;-48
2021/10/02 02:11:32;;;;;;;4.32;2.53;;;;;;;12.19;91.90;100596.50;683310;28;1234;-53
2021/10/02 02:11:52;;;;;;;4.93;2.55;;;;;;;12.18;94.71;100589.50;682026;28;4061;-53
2021/10/02 02:12:15;;;;;;;6.03;3.00;;;;;;;12.13;94.77;100596.59;682274;28;1731;-52
2021/10/02 02:12:37;;;;;;;4.93;2.72;;;;;;;12.12;94.17;100589.59;682534;28;1670;-52
2021/10/02 02:13:00;;;;;;;5.10;2.80;;;;;;;12.17;94.70;100594.78;678570;29;4534;-49
2021/10/02 02:13:21;;;;;;;5.07;3.00;;;;;;;12.18;94.02;100594.75;679945;29;1438;-50
2021/10/02 02:13:43;;;;;;;5.10;2.90;;;;;;;12.17;93.25;100582.56;680176;29;1433;-49
2021/10/02 02:14:04;;;;;;;4.57;2.60;;;;;;;12.17;92.55;100590.44;680484;29;1419;-51
2021/10/02 02:14:24;;;;;;;4.95;2.70;;;;;;;12.15;94.25;100586.94;680199;29;1590;-50
2021/10/02 02:14:47;;;;;;;5.27;3.00;;;;;;;12.15;94.72;100586.94;679702;29;4310;-52
2021/10/02 02:15:12;;;;;;;6.13;3.13;;;;;;;12.13;93.70;100585.22;679309;29;1393;-51
2021/10/02 02:15:34;;;;;;;6.00;2.72;;;;;;;12.13;93.97;100582.59;680099;29;2337;-51
2021/10/02 02:15:58;;;;;;;5.80;2.72;;;;;;;12.07;95.46;100589.69;679142;29;4498;-50
2021/10/02 02:16:19;;;;;;;4.22;2.83;;;;;;;12.05;95.49;100587.97;679518;29;1606;-52
2021/10/02 02:16:40;;;;;;;4.95;2.78;;;;;;;12.05;94.16;100585.34;679782;29;1756;-49
2021/10/02 02:17:02;;;;;;;5.18;2.58;;;;;;;12.09;94.21;100590.50;680994;28;1354;-49
2021/10/02 02:17:25;;;;;;;5.50;2.80;;;;;;;12.12;92.54;100588.75;682938;28;1543;-51
2021/10/02 02:17:51;;;;;;;4.95;2.40;;;;;;;12.14;90.76;100582.56;680915;28;4074;-49
2021/10/02 02:18:15;;;;;;;4.55;2.40;;;;;;;12.20;90.27;100595.63;681423;28;1989;-52
2021/10/02 02:18:36;;;;;;;4.35;2.13;;;;;;;12.24;89.46;100588.59;681434;28;1971;-51
2021/10/02 02:18:58;;;;;;;3.75;2.10;;;;;;;12.27;89.14;100594.66;681593;28;4658;-51
2021/10/02 02:19:19;;;;;;;4.70;2.45;;;;;;;12.30;90.42;100591.13;680948;28;1538;-50
2021/10/02 02:19:41;;;;;;;4.82;2.55;;;;;;;12.27;93.62;100594.66;680974;28;1536;-52
2021/10/02 02:20:04;;;;;;;4.80;2.90;;;;;;;12.21;94.89;100589.50;679828;29;1421;-50
2021/10/02 02:20:38;;;;;;;5.00;2.65;;;;;;;12.20;92.94;100590.38;679345;29;1380;-51
2021/10/02 02:21:02;;;;;;;4.68;2.50;;;;;;;12.19;94.11;100593.88;679906;29;1719;-49
2021/10/02 02:21:25;;;;;;;5.13;3.05;;;;;;;12.15;95.82;100586.94;679612;29;1692;-49
2021/10/02 02:21:45;;;;;;;4.55;2.90;;;;;;;12.13;94.99;100593.97;680411;28;1653;-49
2021/10/02 02:22:06;;;;;;;4.57;2.63;;;;;;;12.13;94.00;100591.34;681376;28;4572;-50
2021/10/02 02:22:26;;;;;;;4.00;2.37;;;;;;;12.13;93.07;100591.34;682714;28;1340;-50
2021/10/02 02:22:48;;;;;;;5.30;2.50;;;;;;;12.18;91.21;100593.91;682952;28;1644;-53
2021/10/02 02:23:11;;;;;;;6.85;2.83;;;;;;;12.20;90.55;100587.75;681944;28;1411;-52
2021/10/02 02:23:31;;;;;;;5.57;2.60;;;;;;;12.21;94.14;100589.50;682066;28;3931;-49
2021/10/02 02:23:52;;;;;;;5.50;3.10;;;;;;;12.20;94.90;100587.75;682218;28;3490;-49
2021/10/02 02:24:13;;;;;;;4.33;2.70;;;;;;;12.21;91.51;100589.50;682983;28;1616;-51
2021/10/02 02:24:34;;;;;;;3.73;2.23;;;;;;;12.23;90.67;100587.72;681481;28;1735;-51
2021/10/02 02:24:54;;;;;;;4.20;2.30;;;;;;;12.25;89.94;100587.69;681335;28;5423;-52
2021/10/02 02:25:15;;;;;;;4.38;2.55;;;;;;;12.26;91.31;100582.44;681967;28;1406;-51
2021/10/02 02:25:36;;;;;;;6.30;2.60;;;;;;;12.26;91.22;100587.66;680006;29;1845;-50
2021/10/02 02:26:03;;;;;;;5.85;2.83;;;;;;;12.25;93.04;100582.44;678400;29;1699;-54
2021/10/02 02:26:27;;;;;;;5.10;3.10;;;;;;;12.21;94.49;100584.25;680425;29;4123;-52
2021/10/02 02:26:47;;;;;;;4.90;2.90;;;;;;;12.17;95.71;100585.19;679963;29;3713;-52
2021/10/02 02:27:08;;;;;;;5.70;3.13;;;;;;;12.09;96.37;100576.56;679750;28;1759;-50
2021/10/02 02:27:29;;;;;;;6.78;3.40;;;;;;;12.02;96.86;100578.38;680182;29;1652;-53
2021/10/02 02:27:49;;;;;;;5.28;3.22;;;;;;;12.03;96.47;100587.97;680137;28;4596;-51
2021/10/02 02:28:10;;;;;;;5.00;2.80;;;;;;;12.05;95.79;100582.72;679854;29;964;-53
2021/10/02 02:28:34;;;;;;;5.87;3.00;;;;;;;12.04;95.75;100581.81;680147;29;1371;-51
2021/10/02 02:28:56;;;;;;;5.72;2.90;;;;;;;12.08;96.11;100573.03;679803;29;1565;-50
2021/10/02 02:29:16;;;;;;;4.97;3.00;;;;;;;12.07;95.87;100583.53;680496;29;1977;-50
2021/10/02 02:29:37;;;;;;;5.10;2.85;;;;;;;12.05;95.07;100582.72;678669;29;3788;-50
2021/10/02 02:29:57;;;;;;;5.13;2.80;;;;;;;12.11;95.19;100579.16;679495;29;1341;-49
2021/10/02 02:30:18;;;;;;;5.47;3.00;;;;;;;12.13;95.11;100580.88;679407;29;1258;-50
2021/10/02 02:30:39;;;;;;;4.47;2.85;;;;;;;12.16;94.07;100579.97;680546;28;1277;-49
2021/10/02 02:31:00;;;;;;;4.35;2.67;;;;;;;12.17;93.83;100579.94;665048;28;6099;-49
2021/10/02 02:31:21;;;;;;;4.18;2.47;;;;;;;12.20;93.95;100582.50;681138;28;6324;-52
2021/10/02 02:31:42;;;;;;;4.88;2.40;;;;;;;12.17;93.67;100584.31;679384;29;1998;-50
2021/10/02 02:32:03;;;;;;;7.07;2.65;;;;;;;12.15;94.05;100581.69;676409;29;6483;-48
2021/10/02 02:32:23;;;;;;;6.50;2.80;;;;;;;12.12;93.59;100576.50;677014;29;3167;-50
2021/10/02 02:32:45;;;;;;;4.97;2.80;;;;;;;12.09;95.70;100590.50;676168;29;3293;-50
2021/10/02 02:33:08;;;;;;;5.65;3.10;;;;;;;12.08;96.27;100585.28;675944;29;6630;-50
2021/10/02 02:33:28;;;;;;;5.55;3.10;;;;;;;12.05;95.92;100585.34;677304;29;1454;-50
2021/10/02 02:33:49;;;;;;;6.07;3.10;;;;;;;12.04;95.88;100584.44;675261;29;4384;-53
2021/10/02 02:34:10;;;;;;;6.18;3.10;;;;;;;12.03;96.65;100589.72;679533;29;1530;-53
2021/10/02 02:34:31;;;;;;;5.20;2.78;;;;;;;12.01;94.67;100584.50;678949;29;1632;-53
2021/10/02 02:34:51;;;;;;;5.18;2.60;;;;;;;12.04;93.04;100591.44;680605;29;1647;-51
2021/10/02 02:35:13;;;;;;;5.07;2.67;;;;;;;12.04;94.05;100584.44;679954;29;6392;-50
2021/10/02 02:35:33;;;;;;;4.82;2.83;;;;;;;12.05;95.03;100587.97;677530;29;4045;-54
2021/10/02 02:35:54;;;;;;;4.60;2.95;;;;;;;12.06;94.33;100590.56;678877;29;1629;-52
2021/10/02 02:36:15;;;;;;;5.32;2.67;;;;;;;12.09;93.35;100589.66;678570;29;1691;-50
2021/10/02 02:36:35;;;;;;;6.60;3.03;;;;;;;12.12;95.17;100589.59;680170;29;1543;-49
2021/10/02 02:36:58;;;;;;;7.03;3.08;;;;;;;12.25;93.97;100585.97;680050;29;4801;-49
2021/10/02 02:37:18;;;;;;;6.43;2.80;;;;;;;12.23;93.90;100582.47;680304;28;1401;-54
2021/10/02 02:37:39;;;;;;;4.82;2.67;;;;;;;12.21;92.41;100584.25;681910;28;1552;-52
2021/10/02 02:37:59;;;;;;;4.30;2.50;;;;;;;12.22;91.82;100583.34;681412;28;1412;-49
2021/10/02 02:38:20;;;;;;;4.38;2.70;;;;;;;12.22;92.87;100585.97;681059;29;3229;-51
2021/10/02 02:38:40;;;;;;;5.50;2.80;;;;;;;12.19;94.08;100586.00;679116;29;4207;-50
2021/10/02 02:39:01;;;;;;;4.70;2.77;;;;;;;12.17;93.57;100585.19;680120;29;2035;-55
2021/10/02 02:39:22;;;;;;;4.25;2.50;;;;;;;12.15;94.64;100584.31;679898;28;6518;-52
2021/10/02 02:39:42;;;;;;;5.95;2.75;;;;;;;12.11;95.02;100585.25;679679;29;1613;-52
2021/10/02 02:40:04;;;;;;;5.30;2.87;;;;;;;12.09;95.99;100584.41;679518;29;4490;-53
2021/10/02 02:40:26;;;;;;;4.95;2.70;;;;;;;12.07;94.75;100587.06;680455;29;1561;-51
2021/10/02 02:40:47;;;;;;;5.72;2.53;;;;;;;12.08;93.08;100585.28;680201;29;1810;-50
2021/10/02 02:41:09;;;;;;;4.40;2.40;;;;;;;12.10;94.66;100586.13;679717;29;1217;-50
2021/10/02 02:41:29;;;;;;;4.68;2.90;;;;;;;12.09;94.99;100585.25;680306;28;4049;-54
2021/10/02 02:41:49;;;;;;;4.30;2.60;;;;;;;12.10;93.98;100580.88;682066;28;1684;-51
2021/10/02 02:42:10;;;;;;;4.20;2.55;;;;;;;12.12;93.99;100584.38;681635;28;1726;-54
2021/10/02 02:42:30;;;;;;;5.20;2.83;;;;;;;12.09;96.07;100582.66;680356;29;1357;-52
2021/10/02 02:42:51;;;;;;;5.55;3.05;;;;;;;12.07;95.91;100583.53;678980;28;4384;-52
2021/10/02 02:43:12;;;;;;;5.40;3.03;;;;;;;12.05;96.29;100577.47;679995;28;1687;-50
2021/10/02 02:43:36;;;;;;;5.77;3.10;;;;;;;12.03;97.05;100582.75;680540;29;1925;-51
2021/10/02 02:43:56;;;;;;;5.38;3.10;;;;;;;12.01;96.31;100573.16;679779;29;1435;-53
2021/10/02 02:44:17;;;;;;;6.40;3.10;;;;;;;11.98;96.84;100576.69;679583;29;2621;-50
2021/10/02 02:44:37;;;;;;;7.13;2.95;;;;;;;11.95;97.12;100581.06;679006;29;2511;-54
2021/10/02 02:44:58;;;;;;;5.50;2.50;;;;;;;11.96;94.87;100581.06;679699;29;1786;-49
2021/10/02 02:45:21;;;;;;;4.97;2.40;;;;;;;12.00;94.24;100577.50;680511;28;1709;-50
2021/10/02 02:45:52;;;;;;;4.38;2.33;;;;;;;12.05;92.81;100583.56;682149;28;1348;-51
2021/10/02 02:46:43;;;;;;;5.90;2.65;;;;;;;12.05;95.55;100580.09;682639;28;4718;-52
2021/10/02 02:47:18;;;;;;;4.90;2.70;;;;;;;12.05;94.88;100575.72;680962;28;1801;-53
2021/10/02 02:47:51;;;;;;;4.93;2.88;;;;;;;12.03;97.08;100574.00;679168;29;4464;-54
2021/10/02 02:48:21;;;;;;;5.05;2.90;;;;;;;11.98;95.31;100574.06;680176;29;1707;-52
2021/10/02 02:48:56;;;;;;;4.90;2.75;;;;;;;11.98;94.45;100576.69;680124;29;1374;-50
2021/10/02 02:49:34;;;;;;;5.13;2.60;;;;;;;12.02;93.31;100570.50;679601;29;4861;-51
2021/10/02 02:49:58;;;;;;;5.78;2.78;;;;;;;12.06;94.44;100573.97;680520;29;1482;-52
2021/10/02 02:50:26;;;;;;;6.03;3.13;;;;;;;12.04;96.20;100573.13;678695;29;3560;-50
2021/10/02 02:51:01;;;;;;;5.75;2.92;;;;;;;12.01;96.99;100570.53;678823;29;2172;-52
2021/10/02 02:51:31;;;;;;;4.50;2.80;;;;;;;12.01;95.35;100575.78;678522;29;1921;-49
2021/10/02 02:52:02;;;;;;;4.50;2.80;;;;;;;12.03;95.62;100569.63;679844;29;4975;-51
2021/10/02 02:52:41;;;;;;;5.07;2.90;;;;;;;12.13;96.31;100565.16;679760;29;1402;-49
2021/10/02 02:53:10;;;;;;;4.63;2.88;;;;;;;12.24;94.84;100565.88;678243;29;1467;-52
2021/10/02 02:53:46;;;;;;;5.13;2.65;;;;;;;12.26;93.53;100565.84;675965;29;4063;-49
2021/10/02 02:54:25;;;;;;;5.28;2.78;;;;;;;12.21;95.15;100559.78;678335;29;1727;-49
2021/10/02 02:55:09;;;;;;;4.90;2.70;;;;;;;12.13;96.21;100565.16;679008;29;1848;-52
2021/10/02 02:55:34;;;;;;;5.97;3.20;;;;;;;12.11;95.49;100572.16;679494;29;4879;-51
2021/10/02 02:56:07;;;;;;;5.85;2.75;;;;;;;12.10;94.75;100565.16;679820;29;1295;-54